createdAt,value
2023-04-11T00:00:36.536Z,99999.75
2023-04-11T00:03:03.385Z,100004.59
2023-04-11T00:05:33.601Z,99994.13
2023-04-11T00:08:00.615Z,100001.81
2023-04-11T00:10:27.102Z,100000.91
2023-04-11T00:12:56.711Z,100007.16
2023-04-11T00:15:24.547Z,99998.28
2023-04-11T00:17:51.229Z,100021.22
2023-04-11T00:20:17.747Z,100027.31
2023-04-11T00:22:44.220Z,100028.19
2023-04-11T00:25:10.745Z,100011.09
2023-04-11T00:27:37.281Z,100018.53
2023-04-11T00:30:06.794Z,100021.56
2023-04-11T00:32:33.602Z,100018.97
2023-04-11T00:35:00.220Z,100005.81
2023-04-11T00:37:26.644Z,100016.44
2023-04-11T00:39:55.842Z,100018.22
2023-04-11T00:42:22.312Z,100008.16
2023-04-11T00:44:48.945Z,100033.50
2023-04-11T00:47:15.587Z,100047.16
2023-04-11T00:49:43.886Z,100024.50
2023-04-11T00:52:12.753Z,100028.88
2023-04-11T00:54:39.466Z,100016.06
2023-04-11T00:57:07.743Z,100005.22
2023-04-11T00:59:34.550Z,99997.38
2023-04-11T01:02:01.957Z,99991.00
2023-04-11T01:04:31.715Z,99993.16
2023-04-11T01:07:04.091Z,99989.78
2023-04-11T01:09:33.155Z,99993.03
2023-04-11T01:12:01.587Z,99985.88
2023-04-11T01:14:28.786Z,99985.03
2023-04-11T01:16:56.668Z,99995.16
2023-04-11T01:19:29.307Z,100003.03
2023-04-11T01:21:57.615Z,100015.97
2023-04-11T01:24:24.767Z,100022.91
2023-04-11T01:26:51.855Z,100027.81
2023-04-11T01:29:18.974Z,100031.72
2023-04-11T01:31:46.319Z,100050.22
2023-04-11T01:34:14.910Z,100058.03
2023-04-11T01:36:42.517Z,100068.75
2023-04-11T01:39:09.563Z,100046.88
2023-04-11T01:41:37.238Z,100054.84
2023-04-11T01:44:04.510Z,100063.84
2023-04-11T01:46:31.930Z,100065.75
2023-04-11T01:49:00.508Z,100064.03
2023-04-11T01:51:27.624Z,100069.41
2023-04-11T01:53:54.371Z,100068.50
2023-04-11T01:56:20.968Z,100076.13
2023-04-11T01:59:07.489Z,100073.13
2023-04-11T02:01:54.181Z,100061.78
2023-04-11T02:04:40.670Z,100060.19
2023-04-11T02:07:27.367Z,100049.28
2023-04-11T02:10:13.798Z,100048.50
2023-04-11T02:13:00.198Z,100046.41
2023-04-11T02:15:26.644Z,100048.16
2023-04-11T02:17:54.243Z,100039.56
2023-04-11T02:20:24.070Z,100053.41
2023-04-11T02:22:50.584Z,100062.56
2023-04-11T02:25:17.207Z,100058.19
2023-04-11T02:27:43.823Z,100063.19
2023-04-11T02:30:10.525Z,100056.28
2023-04-11T02:32:40.413Z,100063.84
2023-04-11T02:35:08.147Z,100059.81
2023-04-11T02:37:34.992Z,100054.69
2023-04-11T02:40:04.570Z,100043.41
2023-04-11T02:42:31.107Z,100056.41
2023-04-11T02:44:59.081Z,100051.94
2023-04-11T02:47:28.281Z,100048.97
2023-04-11T02:49:59.416Z,100060.34
2023-04-11T02:52:33.558Z,100065.63
2023-04-11T02:55:00.610Z,100065.88
2023-04-11T02:57:27.772Z,100066.69
2023-04-11T02:59:55.294Z,100067.03
2023-04-11T03:02:30.134Z,100071.50
2023-04-11T03:04:57.898Z,100078.34
2023-04-11T03:07:24.775Z,100081.81
2023-04-11T03:09:52.044Z,100082.78
2023-04-11T03:12:20.047Z,100086.25
2023-04-11T03:14:53.826Z,100089.50
2023-04-11T03:17:21.149Z,100086.38
2023-04-11T03:19:48.056Z,100079.91
2023-04-11T03:22:14.667Z,100080.41
2023-04-11T03:24:41.296Z,100084.72
2023-04-11T03:27:08.338Z,100089.94
2023-04-11T03:29:37.725Z,100092.63
2023-04-11T03:32:10.809Z,100091.97
2023-04-11T03:34:37.761Z,100087.59
2023-04-11T03:37:06.842Z,100085.97
2023-04-11T03:39:35.830Z,100073.78
2023-04-11T03:42:02.637Z,100086.03
2023-04-11T03:44:30.283Z,100090.03
2023-04-11T03:46:57.379Z,100089.31
2023-04-11T03:49:27.370Z,100091.84
2023-04-11T03:51:56.243Z,100085.66
2023-04-11T03:54:24.075Z,100088.19
2023-04-11T03:56:50.568Z,100100.81
2023-04-11T03:59:21.541Z,100105.91
2023-04-11T04:01:53.578Z,100109.31
2023-04-11T04:04:20.418Z,100115.56
2023-04-11T04:06:56.911Z,100110.50
2023-04-11T04:09:30.517Z,100099.25
2023-04-11T04:11:57.896Z,100087.41
2023-04-11T04:14:34.371Z,100084.44
2023-04-11T04:17:01.207Z,100074.44
2023-04-11T04:19:29.322Z,100080.56
2023-04-11T04:21:58.064Z,100084.69
2023-04-11T04:24:27.625Z,100093.13
2023-04-11T04:27:11.195Z,100088.50
2023-04-11T04:29:49.262Z,100078.88
2023-04-11T04:32:28.736Z,100047.63
2023-04-11T04:35:01.655Z,100049.38
2023-04-11T04:37:33.887Z,100061.19
2023-04-11T04:40:20.458Z,100065.44
2023-04-11T04:43:03.791Z,100082.75
2023-04-11T04:45:42.648Z,100088.75
2023-04-11T04:48:09.858Z,100098.31
2023-04-11T04:50:36.498Z,100112.25
2023-04-11T04:53:03.905Z,100109.06
2023-04-11T04:55:30.515Z,100101.66
2023-04-11T04:57:57.126Z,100095.59
2023-04-11T05:00:23.980Z,100089.78
2023-04-11T05:02:54.900Z,100097.63
2023-04-11T05:05:22.449Z,100111.34
2023-04-11T05:07:48.943Z,100124.41
2023-04-11T05:10:16.442Z,100111.41
2023-04-11T05:12:44.286Z,100114.22
2023-04-11T05:15:12.552Z,100128.78
2023-04-11T05:17:40.651Z,100136.81
2023-04-11T05:20:08.951Z,100148.03
2023-04-11T05:22:38.129Z,100154.03
2023-04-11T05:25:05.629Z,100151.44
2023-04-11T05:27:32.414Z,100143.66
2023-04-11T05:30:00.567Z,100154.81
2023-04-11T05:32:27.455Z,100154.88
2023-04-11T05:34:59.027Z,100158.50
2023-04-11T05:37:48.041Z,100159.41
2023-04-11T05:40:14.538Z,100167.16
2023-04-11T05:42:41.329Z,100175.84
2023-04-11T05:45:08.538Z,100181.38
2023-04-11T05:47:35.090Z,100170.22
2023-04-11T05:50:01.708Z,100180.69
2023-04-11T05:52:28.286Z,100185.94
2023-04-11T05:54:54.761Z,100180.34
2023-04-11T05:57:22.044Z,100182.72
2023-04-11T05:59:53.063Z,100185.59
2023-04-11T06:02:19.846Z,100190.72
2023-04-11T06:04:46.685Z,100193.22
2023-04-11T06:07:13.903Z,100193.41
2023-04-11T06:09:42.339Z,100200.31
2023-04-11T06:12:09.707Z,100228.97
2023-04-11T06:14:38.049Z,100221.34
2023-04-11T06:17:06.252Z,100221.41
2023-04-11T06:19:32.695Z,100223.22
2023-04-11T06:21:59.167Z,100226.72
2023-04-11T06:24:37.023Z,100236.06
2023-04-11T06:27:03.818Z,100228.06
2023-04-11T06:29:30.970Z,100226.22
2023-04-11T06:31:58.784Z,100221.72
2023-04-11T06:34:25.476Z,100228.34
2023-04-11T06:36:51.985Z,100230.84
2023-04-11T06:39:18.535Z,100233.34
2023-04-11T06:41:46.915Z,100228.91
2023-04-11T06:44:22.764Z,100225.41
2023-04-11T06:46:49.350Z,100235.66
2023-04-11T06:49:17.555Z,100242.31
2023-04-11T06:51:47.093Z,100256.28
2023-04-11T06:54:13.558Z,100257.78
2023-04-11T06:56:40.237Z,100258.22
2023-04-11T06:59:06.712Z,100268.31
2023-04-11T07:01:39.192Z,100261.47
2023-04-11T07:04:07.316Z,100268.91
2023-04-11T07:06:38.305Z,100269.72
2023-04-11T07:09:05.599Z,100271.41
2023-04-11T07:11:33.278Z,100284.50
2023-04-11T07:14:00.471Z,100286.16
2023-04-11T07:16:27.381Z,100276.56
2023-04-11T07:18:54.547Z,100282.78
2023-04-11T07:21:21.274Z,100290.63
2023-04-11T07:23:48.340Z,100282.56
2023-04-11T07:26:16.625Z,100286.16
2023-04-11T07:28:45.098Z,100282.78
2023-04-11T07:31:12.227Z,100275.94
2023-04-11T07:33:39.031Z,100290.97
2023-04-11T07:36:06.647Z,100290.72
2023-04-11T07:38:34.124Z,100292.03
2023-04-11T07:41:02.273Z,100274.44
2023-04-11T07:43:29.525Z,100280.34
2023-04-11T07:45:57.367Z,100283.97
2023-04-11T07:48:25.283Z,100296.63
2023-04-11T07:50:52.879Z,100284.50
2023-04-11T07:53:19.707Z,100288.91
2023-04-11T07:55:46.137Z,100289.97
2023-04-11T07:58:12.876Z,100288.13
2023-04-11T08:00:39.417Z,100284.78
2023-04-11T08:03:08.029Z,100285.34
2023-04-11T08:05:36.408Z,100281.72
2023-04-11T08:08:04.144Z,100286.94
2023-04-11T08:10:31.012Z,100294.53
2023-04-11T08:12:58.621Z,100294.13
2023-04-11T08:15:25.993Z,100289.84
2023-04-11T08:17:56.271Z,100289.84
2023-04-11T08:20:24.045Z,100286.81
2023-04-11T08:22:50.785Z,100281.81
2023-04-11T08:25:19.940Z,100284.94
2023-04-11T08:27:46.577Z,100287.22
2023-04-11T08:30:13.753Z,100282.41
2023-04-11T08:32:41.412Z,100304.47
2023-04-11T08:35:09.160Z,100292.22
2023-04-11T08:37:35.764Z,100297.13
2023-04-11T08:40:06.646Z,100291.69
2023-04-11T08:42:33.941Z,100284.97
2023-04-11T08:45:04.085Z,100294.34
2023-04-11T08:47:30.974Z,100290.66
2023-04-11T08:49:57.456Z,100296.75
2023-04-11T08:52:25.276Z,100296.56
2023-04-11T08:54:56.927Z,100290.97
2023-04-11T08:57:35.028Z,100294.25
2023-04-11T09:00:18.715Z,100298.91
2023-04-11T09:02:59.029Z,100289.59
2023-04-11T09:05:30.161Z,100309.50
2023-04-11T09:07:59.082Z,100291.75
2023-04-11T09:10:26.740Z,100290.84
2023-04-11T09:12:56.963Z,100291.56
2023-04-11T09:15:28.860Z,100294.47
2023-04-11T09:17:58.876Z,100287.47
2023-04-11T09:20:29.516Z,100281.09
2023-04-11T09:22:57.642Z,100276.69
2023-04-11T09:25:24.708Z,100285.25
2023-04-11T09:28:07.807Z,100278.94
2023-04-11T09:30:34.801Z,100301.69
2023-04-11T09:33:18.617Z,100280.00
2023-04-11T09:35:48.749Z,100280.81
2023-04-11T09:38:27.749Z,100285.19
2023-04-11T09:40:54.317Z,100290.16
2023-04-11T09:43:21.066Z,100316.63
2023-04-11T09:45:54.080Z,100308.16
2023-04-11T09:48:26.844Z,100317.94
2023-04-11T09:51:04.917Z,100336.75
2023-04-11T09:53:34.149Z,100339.88
2023-04-11T09:56:01.464Z,100333.94
2023-04-11T09:58:31.726Z,100336.97
2023-04-11T10:01:00.394Z,100334.44
2023-04-11T10:03:27.624Z,100333.88
2023-04-11T10:05:55.556Z,100335.06
2023-04-11T10:08:32.703Z,100331.09
2023-04-11T10:11:00.399Z,100332.59
2023-04-11T10:13:46.374Z,100327.19
2023-04-11T10:16:18.498Z,100334.50
2023-04-11T10:18:54.060Z,100331.28
2023-04-11T10:21:30.183Z,100333.09
2023-04-11T10:24:10.375Z,100335.78
2023-04-11T10:26:56.260Z,100316.72
2023-04-11T10:29:40.796Z,100327.56
2023-04-11T10:32:17.250Z,100324.41
2023-04-11T10:34:50.078Z,100328.44
2023-04-11T10:37:35.276Z,100340.56
2023-04-11T10:40:01.803Z,100324.38
2023-04-11T10:42:33.965Z,100321.38
2023-04-11T10:45:23.429Z,100313.88
2023-04-11T10:47:56.332Z,100306.88
2023-04-11T10:50:28.983Z,100305.56
2023-04-11T10:52:59.844Z,100306.22
2023-04-11T10:55:28.628Z,100306.97
2023-04-11T10:58:11.332Z,100325.38
2023-04-11T11:00:47.440Z,100332.88
2023-04-11T11:03:21.611Z,100331.31
2023-04-11T11:05:58.438Z,100302.00
2023-04-11T11:08:30.447Z,100312.16
2023-04-11T11:11:06.328Z,100309.16
2023-04-11T11:13:43.398Z,100295.56
2023-04-11T11:16:14.400Z,100298.97
2023-04-11T11:18:41.787Z,100306.81
2023-04-11T11:21:14.071Z,100301.44
2023-04-11T11:23:55.696Z,100272.81
2023-04-11T11:26:24.786Z,100276.72
2023-04-11T11:28:51.335Z,100274.66
2023-04-11T11:31:18.256Z,100274.66
2023-04-11T11:33:44.759Z,100279.38
2023-04-11T11:36:12.054Z,100274.25
2023-04-11T11:38:38.614Z,100271.34
2023-04-11T11:41:05.353Z,100271.94
2023-04-11T11:43:36.348Z,100274.31
2023-04-11T11:46:14.648Z,100277.47
2023-04-11T11:48:43.317Z,100280.91
2023-04-11T11:51:10.071Z,100280.19
2023-04-11T11:53:36.964Z,100297.16
2023-04-11T11:56:13.820Z,100299.69
2023-04-11T11:58:44.861Z,100290.50
2023-04-11T12:03:48.056Z,100302.59
2023-04-11T12:06:16.157Z,100298.44
2023-04-11T12:08:50.232Z,100301.34
2023-04-11T12:11:18.326Z,100300.00
2023-04-11T12:13:46.187Z,100296.97
2023-04-11T12:16:14.655Z,100290.16
2023-04-11T12:18:42.423Z,100298.88
2023-04-11T12:21:09.087Z,100304.69
2023-04-11T12:23:35.540Z,100298.13
2023-04-11T12:26:02.155Z,100281.19
2023-04-11T12:28:28.917Z,100280.56
2023-04-11T12:30:55.542Z,100271.19
2023-04-11T12:33:22.178Z,100267.50
2023-04-11T12:35:48.713Z,100268.44
2023-04-11T12:38:17.671Z,100257.16
2023-04-11T12:40:45.575Z,100260.09
2023-04-11T12:43:12.133Z,100263.09
2023-04-11T12:45:39.101Z,100294.69
2023-04-11T12:48:06.020Z,100274.41
2023-04-11T12:50:32.495Z,100265.88
2023-04-11T12:52:59.034Z,100266.78
2023-04-11T12:55:25.647Z,100273.81
2023-04-11T12:57:52.273Z,100266.84
2023-04-11T13:00:19.029Z,100272.25
2023-04-11T13:02:45.917Z,100264.56
2023-04-11T13:05:15.080Z,100282.75
2023-04-11T13:07:44.377Z,100268.50
2023-04-11T13:10:11.069Z,100269.13
2023-04-11T13:12:41.565Z,100267.25
2023-04-11T13:15:09.697Z,100265.97
2023-04-11T13:17:36.188Z,100260.94
2023-04-11T13:20:07.402Z,100259.25
2023-04-11T13:22:34.402Z,100252.50
2023-04-11T13:25:00.855Z,100267.09
2023-04-11T13:27:27.728Z,100258.97
2023-04-11T13:29:54.205Z,100249.50
2023-04-11T13:32:21.122Z,100253.94
2023-04-11T13:34:47.529Z,100261.41
2023-04-11T13:37:14.107Z,100242.66
2023-04-11T13:39:40.668Z,100245.84
2023-04-11T13:42:07.212Z,100253.13
2023-04-11T13:44:33.688Z,100250.16
2023-04-11T13:47:01.203Z,100253.25
2023-04-11T13:49:27.733Z,100243.94
2023-04-11T13:51:54.213Z,100247.91
2023-04-11T13:54:20.821Z,100265.13
2023-04-11T13:56:47.418Z,100262.50
2023-04-11T13:59:16.794Z,100255.28
2023-04-11T14:01:43.478Z,100239.44
2023-04-11T14:04:10.138Z,100249.38
2023-04-11T14:06:37.535Z,100248.03
2023-04-11T14:09:05.511Z,100239.53
2023-04-11T14:11:32.151Z,100239.25
2023-04-11T14:13:58.778Z,100239.34
2023-04-11T14:16:25.607Z,100240.19
2023-04-11T14:18:52.161Z,100248.00
2023-04-11T14:21:19.059Z,100237.84
2023-04-11T14:23:45.486Z,100246.94
2023-04-11T14:26:12.233Z,100238.22
2023-04-11T14:28:38.726Z,100234.75
2023-04-11T14:31:05.558Z,100222.88
2023-04-11T14:33:32.249Z,100235.53
2023-04-11T14:35:58.730Z,100251.50
2023-04-11T14:38:25.359Z,100222.06
2023-04-11T14:40:52.011Z,100226.53
2023-04-11T14:43:18.464Z,100222.91
2023-04-11T14:45:46.661Z,100217.41
2023-04-11T14:48:13.154Z,100226.56
2023-04-11T14:50:39.604Z,100236.16
2023-04-11T14:53:06.398Z,100228.09
2023-04-11T14:55:32.847Z,100224.28
2023-04-11T14:57:59.305Z,100221.59
2023-04-11T15:00:26.865Z,100229.44
2023-04-11T15:02:55.491Z,100228.09
2023-04-11T15:05:23.350Z,100241.41
2023-04-11T15:07:51.986Z,100218.56
2023-04-11T15:10:24.952Z,100254.28
2023-04-11T15:12:51.701Z,100232.88
2023-04-11T15:15:18.248Z,100238.69
2023-04-11T15:17:50.258Z,100232.53
2023-04-11T15:20:16.821Z,100227.78
2023-04-11T15:22:45.900Z,100224.50
2023-04-11T15:25:14.184Z,100233.50
2023-04-11T15:27:41.717Z,100224.78
2023-04-11T15:30:09.881Z,100225.72
2023-04-11T15:32:41.616Z,100221.66
2023-04-11T15:35:09.116Z,100213.75
2023-04-11T15:37:35.671Z,100214.19
2023-04-11T15:40:06.155Z,100226.50
2023-04-11T15:42:35.115Z,100224.78
2023-04-11T15:45:02.009Z,100222.50
2023-04-11T15:47:28.641Z,100210.03
2023-04-11T15:49:55.181Z,100219.72
2023-04-11T15:52:21.913Z,100213.31
2023-04-11T15:54:48.378Z,100214.94
2023-04-11T15:57:14.976Z,100212.78
2023-04-11T15:59:41.609Z,100220.19
2023-04-11T16:02:08.370Z,100222.69
2023-04-11T16:04:38.319Z,100215.00
2023-04-11T16:07:06.623Z,100209.75
2023-04-11T16:09:34.552Z,100199.16
2023-04-11T16:12:01.601Z,100202.81
2023-04-11T16:14:29.431Z,100210.59
2023-04-11T16:16:57.518Z,100208.72
2023-04-11T16:19:24.128Z,100205.25
2023-04-11T16:21:50.817Z,100201.88
2023-04-11T16:24:18.789Z,100203.66
2023-04-11T16:26:45.545Z,100195.47
2023-04-11T16:29:12.322Z,100205.56
2023-04-11T16:31:39.363Z,100215.72
2023-04-11T16:34:05.869Z,100205.88
2023-04-11T16:36:32.421Z,100204.22
2023-04-11T16:38:58.939Z,100196.31
2023-04-11T16:41:25.629Z,100199.63
2023-04-11T16:43:52.172Z,100202.25
2023-04-11T16:46:19.020Z,100202.97
2023-04-11T16:48:45.597Z,100200.34
2023-04-11T16:51:13.388Z,100203.88
2023-04-11T16:53:40.173Z,100199.38
2023-04-11T16:56:06.895Z,100189.72
2023-04-11T16:58:33.713Z,100192.88
2023-04-11T17:01:01.425Z,100193.91
2023-04-11T17:03:28.232Z,100185.94
2023-04-11T17:05:54.978Z,100172.81
2023-04-11T17:08:21.505Z,100181.84
2023-04-11T17:10:48.040Z,100178.53
2023-04-11T17:13:15.811Z,100176.00
2023-04-11T17:15:42.584Z,100178.28
2023-04-11T17:18:09.186Z,100175.81
2023-04-11T17:20:35.966Z,100175.63
2023-04-11T17:23:02.577Z,100162.63
2023-04-11T17:25:29.957Z,100177.75
2023-04-11T17:27:57.269Z,100173.88
2023-04-11T17:30:23.863Z,100170.72
2023-04-11T17:32:50.365Z,100176.22
2023-04-11T17:35:17.109Z,100178.59
2023-04-11T17:37:43.632Z,100175.97
2023-04-11T17:40:11.987Z,100182.03
2023-04-11T17:42:38.597Z,100179.44
2023-04-11T17:45:16.460Z,100173.72
2023-04-11T17:47:44.752Z,100177.28
2023-04-11T17:50:12.968Z,100182.97
2023-04-11T17:52:41.771Z,100182.78
2023-04-11T17:55:10.358Z,100181.38
2023-04-11T17:57:37.720Z,100175.72
2023-04-11T18:00:25.747Z,100179.09
2023-04-11T18:02:57.760Z,100188.88
2023-04-11T18:05:30.887Z,100193.16
2023-04-11T18:07:59.481Z,100191.91
2023-04-11T18:10:27.862Z,100191.28
2023-04-11T18:12:56.239Z,100194.50
2023-04-11T18:15:24.375Z,100184.81
2023-04-11T18:17:51.756Z,100188.88
2023-04-11T18:20:18.710Z,100188.13
2023-04-11T18:22:48.829Z,100194.66
2023-04-11T18:25:15.449Z,100185.66
2023-04-11T18:27:42.862Z,100200.13
2023-04-11T18:30:11.750Z,100196.66
2023-04-11T18:32:43.124Z,100196.50
2023-04-11T18:35:12.689Z,100198.19
2023-04-11T18:37:40.508Z,100193.44
2023-04-11T18:40:17.979Z,100195.47
2023-04-11T18:42:49.040Z,100199.84
2023-04-11T18:45:17.975Z,100194.16
2023-04-11T18:47:47.803Z,100191.41
2023-04-11T18:50:15.473Z,100187.66
2023-04-11T18:52:43.192Z,100185.38
2023-04-11T18:55:10.267Z,100188.06
2023-04-11T18:57:38.340Z,100197.63
2023-04-11T19:00:17.133Z,100206.84
2023-04-11T19:02:45.139Z,100206.91
2023-04-11T19:05:15.923Z,100197.66
2023-04-11T19:07:43.018Z,100195.81
2023-04-11T19:10:10.891Z,100194.13
2023-04-11T19:12:38.252Z,100193.41
2023-04-11T19:15:07.622Z,100195.19
2023-04-11T19:17:38.605Z,100185.84
2023-04-11T19:20:16.339Z,100184.16
2023-04-11T19:22:43.162Z,100178.47
2023-04-11T19:25:11.001Z,100173.16
2023-04-11T19:27:40.210Z,100170.75
2023-04-11T19:30:08.641Z,100178.06
2023-04-11T19:32:38.367Z,100169.25
2023-04-11T19:35:05.760Z,100167.59
2023-04-11T19:37:33.645Z,100169.25
2023-04-11T19:40:01.392Z,100168.69
2023-04-11T19:42:30.527Z,100168.13
2023-04-11T19:44:57.077Z,100170.38
2023-04-11T19:47:24.050Z,100161.84
2023-04-11T19:49:51.701Z,100162.69
2023-04-11T19:52:18.199Z,100160.16
2023-04-11T19:54:45.482Z,100157.09
2023-04-11T19:57:12.225Z,100149.97
2023-04-11T19:59:38.678Z,100152.59
2023-04-11T20:02:05.964Z,100151.66
2023-04-11T20:04:32.595Z,100152.38
2023-04-11T20:07:00.701Z,100140.09
2023-04-11T20:09:30.162Z,100142.00
2023-04-11T20:11:56.786Z,100147.22
2023-04-11T20:14:23.248Z,100143.19
2023-04-11T20:16:49.747Z,100132.47
2023-04-11T20:19:16.284Z,100141.16
2023-04-11T20:21:42.920Z,100131.09
2023-04-11T20:24:12.256Z,100135.69
2023-04-11T20:26:38.685Z,100125.09
2023-04-11T20:29:06.343Z,100121.44
2023-04-11T20:31:32.885Z,100123.34
2023-04-11T20:33:59.658Z,100124.25
2023-04-11T20:36:27.479Z,100117.47
2023-04-11T20:38:55.571Z,100118.56
2023-04-11T20:41:22.215Z,100101.25
2023-04-11T20:43:48.682Z,100096.09
2023-04-11T20:46:17.682Z,100098.56
2023-04-11T20:48:45.828Z,100095.66
2023-04-11T20:51:12.336Z,100087.16
2023-04-11T20:53:38.878Z,100082.00
2023-04-11T20:56:05.867Z,100083.59
2023-04-11T20:58:32.805Z,100079.06
2023-04-11T21:00:59.379Z,100078.22
2023-04-11T21:03:30.239Z,100075.91
2023-04-11T21:05:57.039Z,100062.69
2023-04-11T21:08:23.709Z,100067.16
2023-04-11T21:10:50.393Z,100062.00
2023-04-11T21:13:16.937Z,100053.94
2023-04-11T21:15:43.504Z,100049.81
2023-04-11T21:18:10.239Z,100047.97
2023-04-11T21:20:39.452Z,100044.66
2023-04-11T21:23:06.028Z,100043.50
2023-04-11T21:25:32.450Z,100036.50
2023-04-11T21:27:58.908Z,100030.59
2023-04-11T21:30:25.403Z,100028.06
2023-04-11T21:32:52.264Z,100031.66
2023-04-11T21:35:18.970Z,100025.50
2023-04-11T21:37:47.152Z,100017.25
2023-04-11T21:40:15.540Z,100018.59
2023-04-11T21:42:42.016Z,100018.59
2023-04-11T21:45:08.784Z,100012.09
2023-04-11T21:47:35.424Z,100011.31
2023-04-11T21:50:02.220Z,100003.03
2023-04-11T21:52:28.777Z,100004.63
2023-04-11T21:54:55.842Z,100000.41
2023-04-11T21:57:22.416Z,99990.38
2023-04-11T21:59:48.844Z,99994.09
2023-04-11T22:02:15.706Z,99994.53
2023-04-11T22:04:55.640Z,99985.78
2023-04-11T22:07:32.417Z,99980.63
2023-04-11T22:10:08.983Z,99971.13
2023-04-11T22:12:36.684Z,99977.25
2023-04-11T22:15:05.092Z,99983.16
2023-04-11T22:17:32.419Z,99973.84
2023-04-11T22:19:58.924Z,99971.09
2023-04-11T22:22:30.036Z,99966.50
2023-04-11T22:24:57.821Z,99960.28
2023-04-11T22:27:26.253Z,99956.63
2023-04-11T22:29:56.135Z,99948.72
2023-04-11T22:32:26.381Z,99951.59
2023-04-11T22:34:52.884Z,99938.94
2023-04-11T22:37:19.574Z,99940.53
2023-04-11T22:39:46.008Z,99938.88
2023-04-11T22:42:12.685Z,99931.78
2023-04-11T22:44:39.220Z,99938.50
2023-04-11T22:47:08.396Z,99941.88
2023-04-11T22:49:41.093Z,99930.41
2023-04-11T22:52:08.849Z,99927.16
2023-04-11T22:54:35.410Z,99917.78
2023-04-11T22:57:02.180Z,99922.97
2023-04-11T22:59:28.746Z,99923.06
2023-04-11T23:01:55.389Z,99918.19
2023-04-11T23:04:22.257Z,99913.59
2023-04-11T23:06:53.479Z,99906.91
2023-04-11T23:09:21.015Z,99909.47
2023-04-11T23:11:47.897Z,99898.19
2023-04-11T23:14:18.247Z,99882.97
2023-04-11T23:16:45.123Z,99886.50
2023-04-11T23:19:11.937Z,99886.63
2023-04-11T23:21:38.606Z,99880.13
2023-04-11T23:24:06.841Z,99877.34
2023-04-11T23:26:33.552Z,99871.47
2023-04-11T23:29:02.146Z,99869.72
2023-04-11T23:31:28.997Z,99868.88
2023-04-11T23:33:56.127Z,99862.81
2023-04-11T23:36:22.912Z,99859.09
2023-04-11T23:38:49.400Z,99860.78
2023-04-11T23:41:16.146Z,99866.00
2023-04-11T23:43:42.662Z,99851.72
2023-04-11T23:46:09.374Z,99856.56
2023-04-11T23:48:35.859Z,99847.16
2023-04-11T23:51:02.354Z,99846.91
2023-04-11T23:53:28.898Z,99847.53
2023-04-11T23:55:55.656Z,99843.09
2023-04-11T23:58:22.124Z,99851.63
